Time,TemperatureF,DewpointF,PressureIn,WindDirection,WindDirectionDegrees,WindSpeedMPH,WindSpeedGustMPH,Humidity,HourlyPrecipIn,Conditions,Clouds,dailyrainin,SoftwareType,DateUTC
2013-04-26 00:29:00,42.3,39.3,30.06,ENE,78,5.0,5.0,89,0.00,,,0.00,VWS V14.01,2013-04-26 07:29:00,
2013-04-26 00:59:00,42.8,40.4,30.06,East,85,0.0,5.0,91,0.00,,,0.00,VWS V14.01,2013-04-26 07:59:00,
2013-04-26 01:29:00,42.4,39.4,30.05,ENE,75,1.0,7.0,89,0.00,,,0.00,VWS V14.01,2013-04-26 08:29:00,
2013-04-26 01:59:00,42.8,40.1,30.05,East,83,0.0,6.0,90,0.00,,,0.00,VWS V14.01,2013-04-26 08:59:00,
2013-04-26 02:29:00,42.3,39.6,30.05,East,80,2.0,5.0,90,0.00,,,0.00,VWS V14.01,2013-04-26 09:29:00,
2013-04-26 02:59:00,41.6,39.2,30.04,East,80,3.0,5.0,91,0.00,,,0.00,VWS V14.01,2013-04-26 09:59:00,
2013-04-26 03:29:00,41.5,39.1,30.04,ENE,70,1.0,5.0,91,0.00,,,0.00,VWS V14.01,2013-04-26 10:29:00,
2013-04-26 03:59:00,41.2,38.5,30.05,East,83,2.0,4.0,90,0.00,,,0.00,VWS V14.01,2013-04-26 10:59:00,
2013-04-26 04:29:00,40.9,38.5,30.05,ENE,57,1.0,5.0,91,0.00,,,0.00,VWS V14.01,2013-04-26 11:29:00,
2013-04-26 04:59:00,40.4,37.7,30.04,East,85,3.0,6.0,90,0.00,,,0.00,VWS V14.01,2013-04-26 11:59:00,
2013-04-26 05:29:00,41.3,38.0,30.04,ENE,71,3.0,7.0,88,0.00,,,0.00,VWS V14.01,2013-04-26 12:29:00,
2013-04-26 05:59:00,40.9,37.6,30.05,ENE,72,2.0,7.0,88,0.00,,,0.00,VWS V14.01,2013-04-26 12:59:00,
2013-04-26 06:29:00,41.9,38.3,30.06,ENE,67,3.0,7.0,87,0.00,,,0.00,VWS V14.01,2013-04-26 13:29:00,
2013-04-26 06:59:00,44.4,40.8,30.07,ENE,73,4.0,7.0,87,0.00,,,0.00,VWS V14.01,2013-04-26 13:59:00,
2013-04-26 07:29:00,50.6,44.7,30.08,East,81,0.0,7.0,80,0.00,,,0.00,VWS V14.01,2013-04-26 14:29:00,
2013-04-26 07:59:00,57.9,46.6,30.08,East,83,0.0,5.0,66,0.00,,,0.00,VWS V14.01,2013-04-26 14:59:00,
2013-04-26 08:29:00,59.9,44.7,30.08,East,87,0.0,0.0,57,0.00,,,0.00,VWS V14.01,2013-04-26 15:29:00,
2013-04-26 08:59:00,61.7,46.8,30.09,SW,225,0.0,5.0,58,0.00,,,0.00,VWS V14.01,2013-04-26 15:59:00,
2013-04-26 09:29:00,63.3,47.3,30.09,WSW,245,1.0,8.0,56,0.00,,,0.00,VWS V14.01,2013-04-26 16:29:00,
2013-04-26 09:59:00,64.7,48.7,30.09,SW,228,3.0,6.0,56,0.00,,,0.00,VWS V14.01,2013-04-26 16:59:00,
2013-04-26 10:28:00,67.2,50.5,30.09,WNW,287,6.0,10.0,55,0.00,,,0.00,VWS V14.01,2013-04-26 17:28:00,
2013-04-26 10:58:00,69.3,48.2,30.09,NW,312,4.0,11.0,47,0.00,,,0.00,VWS V14.01,2013-04-26 17:58:00,
2013-04-26 11:29:00,70.6,47.0,30.09,WNW,285,3.0,9.0,43,0.00,,,0.00,VWS V14.01,2013-04-26 18:29:00,
2013-04-26 11:59:00,71.6,47.9,30.08,NW,307,3.0,10.0,43,0.00,,,0.00,VWS V14.01,2013-04-26 18:59:00,
2013-04-26 12:29:00,72.6,47.6,30.08,WSW,247,3.0,12.0,41,0.00,,,0.00,VWS V14.01,2013-04-26 19:29:00,
2013-04-26 12:59:00,72.8,45.7,30.08,WNW,297,5.0,13.0,38,0.00,,,0.00,VWS V14.01,2013-04-26 19:59:00,
2013-04-26 13:29:00,73.7,45.8,30.08,WNW,286,3.0,14.0,37,0.00,,,0.00,VWS V14.01,2013-04-26 20:29:00,
2013-04-26 13:59:00,74.4,46.5,30.07,NW,319,0.0,13.0,37,0.00,,,0.00,VWS V14.01,2013-04-26 20:59:00,
2013-04-26 14:29:00,75.8,47.7,30.07,NW,304,7.0,13.0,37,0.00,,,0.00,VWS V14.01,2013-04-26 21:29:00,
2013-04-26 14:59:00,74.4,49.2,30.05,NW,315,4.0,13.0,41,0.00,,,0.00,VWS V14.01,2013-04-26 21:59:00,
2013-04-26 15:29:00,73.9,50.0,30.05,NW,304,5.0,16.0,43,0.00,,,0.00,VWS V14.01,2013-04-26 22:29:00,
2013-04-26 15:58:00,73.5,50.3,30.04,WNW,289,7.0,12.0,44,0.00,,,0.00,VWS V14.01,2013-04-26 22:58:00,
2013-04-26 16:28:00,72.2,49.1,30.04,NNW,338,1.0,13.0,44,0.00,,,0.00,VWS V14.01,2013-04-26 23:28:00,
2013-04-26 17:28:00,70.4,49.2,30.03,West,280,3.0,9.0,47,0.00,,,0.00,VWS V14.01,2013-04-27 00:28:00,
2013-04-26 17:59:00,68.9,48.4,30.03,West,266,1.0,10.0,48,0.00,,,0.00,VWS V14.01,2013-04-27 00:59:00,
2013-04-26 18:28:00,67.1,48.9,30.03,West,268,1.0,8.0,52,0.00,,,0.00,VWS V14.01,2013-04-27 01:28:00,
2013-04-26 18:58:00,64.9,48.4,30.03,WNW,285,1.0,6.0,55,0.00,,,0.00,VWS V14.01,2013-04-27 01:58:00,
2013-04-26 19:29:00,62.2,48.2,30.04,NNW,347,0.0,2.0,60,0.00,,,0.00,VWS V14.01,2013-04-27 02:29:00,
2013-04-26 19:58:00,57.3,46.5,30.04,ENE,70,2.0,3.0,67,0.00,,,0.00,VWS V14.01,2013-04-27 02:58:00,
2013-04-26 20:29:00,53.9,42.8,30.05,ENE,66,2.0,4.0,66,0.00,,,0.00,VWS V14.01,2013-04-27 03:29:00,
2013-04-26 20:59:00,52.8,37.5,30.06,ENE,71,4.0,5.0,56,0.00,,,0.00,VWS V14.01,2013-04-27 03:59:00,
2013-04-26 21:28:00,52.7,34.1,30.07,ENE,68,1.0,7.0,49,0.00,,,0.00,VWS V14.01,2013-04-27 04:28:00,
2013-04-26 21:59:00,51.9,32.3,30.08,East,85,2.0,5.0,47,0.00,,,0.00,VWS V14.01,2013-04-27 04:59:00,
2013-04-26 22:29:00,52.1,30.9,30.08,ENE,76,1.0,5.0,44,0.00,,,0.00,VWS V14.01,2013-04-27 05:29:00,
2013-04-26 22:59:00,52.2,30.4,30.08,East,80,3.0,7.0,43,0.00,,,0.00,VWS V14.01,2013-04-27 05:59:00,
2013-04-26 23:28:00,51.2,30.0,30.08,ENE,66,2.0,7.0,44,0.00,,,0.00,VWS V14.01,2013-04-27 06:28:00,
2013-04-26 23:59:00,51.4,30.2,30.08,ENE,69,2.0,5.0,44,0.00,,,0.00,VWS V14.01,2013-04-27 06:59:00,